NGTA/TRW METAR and TAF weather

Enter ICAO airport designator
Station Type Date Time Source
NGTA METAR 2018/12/13 06:00 UTC NOAA

NGTA 130600Z 06003KT 9999 VCSH FEW017CB SCT018TCU BKN300 27/25 Q1006


Station Type Date Time Source
NGTA Decoded METAR 2018/12/13 06:00 UTC NOAA

Tarawa, Kiribati (NGTA) 01-21N 172-55E 4M
Dec 13, 2018 - 01:00 AM EST / 2018.12.13 0600 UTC
Wind: from the ENE (060 degrees) at 3 MPH (3 KT):0
Visibility: greater than 7 mile(s):0
Sky conditions: mostly cloudy
Weather: showers in the vicinity; Cumulonimbus clouds, towering cumulus clouds observed
Temperature: 80 F (27 C)
Dew Point: 77 F (25 C)
Relative Humidity: 88%
Pressure (altimeter): 29.71 in. Hg (1006 hPa)
ob: NGTA 130600Z 06003KT 9999 VCSH FEW017CB SCT018TCU BKN300 27/25 Q1006
cycle: 6

Station Type Date Time Source
NGTA TAF 2018/12/13 06:25 UTC NOAA

TAF NGTA 130521Z 1306/1406 08010KT 9999 FEW014 SCT017 BKN038 PROB40
TEMPO 1306/1324 3000 TSRA BKN014 FEW017CB


Example: see airport list